Time;durP1;ratioP1;P1;durP2;ratioP2;P2;SDS_P1;SDS_P2;PMS_P1;PMS_P2;Temp;Humidity;BMP_temperature;BMP_pressure;BME280_temperature;BME280_humidity;BME280_pressure;Samples;Min_cycle;Max_cycle;Signal;HPM_P1;HPM_P2
2023/12/02 00:01:00;;;;;;;15.27;6.88;;;-4.20;99.90;;;;;;5068463;28;20102;-61
2023/12/02 00:03:26;;;;;;;12.60;6.80;;;-4.20;99.90;;;;;;5077697;28;20317;-56
2023/12/02 00:05:52;;;;;;;11.45;6.28;;;-4.30;99.90;;;;;;5080624;28;20056;-60
2023/12/02 00:08:18;;;;;;;15.00;6.60;;;-4.20;99.90;;;;;;5078603;28;20043;-61
2023/12/02 00:10:45;;;;;;;12.13;6.75;;;-4.10;99.90;;;;;;5078294;28;20036;-61
2023/12/02 00:13:10;;;;;;;12.88;6.90;;;-4.20;99.90;;;;;;5080076;28;20036;-62
2023/12/02 00:15:36;;;;;;;15.20;7.68;;;-4.10;99.90;;;;;;5078424;28;20090;-60
2023/12/02 00:18:02;;;;;;;15.52;7.65;;;-4.10;99.90;;;;;;5070221;28;20028;-60
2023/12/02 00:20:27;;;;;;;14.43;7.40;;;-4.10;99.90;;;;;;5065958;28;20116;-62
2023/12/02 00:22:53;;;;;;;13.32;7.78;;;-4.00;99.90;;;;;;5063178;28;20047;-60
2023/12/02 00:25:19;;;;;;;13.48;8.13;;;-4.00;99.90;;;;;;5065720;28;20072;-59
2023/12/02 00:27:44;;;;;;;15.80;8.02;;;-3.90;99.90;;;;;;5063371;28;20044;-60
2023/12/02 00:30:10;;;;;;;14.02;7.72;;;-4.00;99.90;;;;;;5067080;28;20028;-57
2023/12/02 00:32:36;;;;;;;15.48;7.63;;;-4.00;99.90;;;;;;5058211;28;20032;-60
2023/12/02 00:35:02;;;;;;;15.52;7.82;;;-4.00;99.90;;;;;;5062983;28;20036;-61
2023/12/02 00:37:28;;;;;;;19.70;9.07;;;-4.00;99.90;;;;;;5060439;28;20120;-61
2023/12/02 00:39:53;;;;;;;16.40;9.00;;;-4.10;99.90;;;;;;5064619;28;20123;-59
2023/12/02 00:42:19;;;;;;;16.10;8.90;;;-4.00;99.90;;;;;;5062808;28;20064;-62
2023/12/02 00:44:44;;;;;;;14.90;8.48;;;-4.00;99.90;;;;;;5064795;28;20220;-61
2023/12/02 00:47:10;;;;;;;19.58;10.60;;;-4.10;99.90;;;;;;5062235;28;20041;-59
2023/12/02 00:49:35;;;;;;;16.23;8.70;;;-4.20;99.90;;;;;;5063450;28;20163;-53
2023/12/02 00:52:01;;;;;;;14.20;7.75;;;-4.10;99.90;;;;;;5063880;28;20037;-56
2023/12/02 00:54:27;;;;;;;16.55;8.73;;;-4.00;99.90;;;;;;5062262;28;20039;-57
2023/12/02 00:56:52;;;;;;;15.48;8.68;;;-4.00;99.90;;;;;;5064588;28;20040;-56
2023/12/02 00:59:18;;;;;;;15.73;7.95;;;-4.00;99.90;;;;;;5064782;28;20665;-61
2023/12/02 01:01:43;;;;;;;16.48;8.15;;;-4.10;99.90;;;;;;5064127;28;20048;-54
2023/12/02 01:04:09;;;;;;;13.32;7.97;;;-4.20;99.90;;;;;;5066419;28;20036;-59
2023/12/02 01:06:34;;;;;;;17.17;8.50;;;-4.20;99.90;;;;;;5065281;28;20044;-59
2023/12/02 01:09:00;;;;;;;19.77;8.43;;;-4.20;99.90;;;;;;5059954;28;20039;-57
2023/12/02 01:11:26;;;;;;;16.02;8.25;;;-4.30;99.90;;;;;;5065528;28;20033;-61
2023/12/02 01:13:51;;;;;;;15.45;7.50;;;-4.30;99.90;;;;;;5055175;28;20028;-59
2023/12/02 01:16:17;;;;;;;15.02;8.02;;;-4.20;99.90;;;;;;5065247;28;20710;-56
2023/12/02 01:18:42;;;;;;;15.43;8.02;;;-4.10;99.90;;;;;;5058931;28;20041;-61
2023/12/02 01:21:08;;;;;;;16.00;7.97;;;-4.10;99.90;;;;;;5065927;28;20039;-60
2023/12/02 01:23:34;;;;;;;15.55;7.72;;;-4.00;99.90;;;;;;5063528;28;20117;-60
2023/12/02 01:25:59;;;;;;;13.65;8.05;;;-4.00;99.90;;;;;;5060271;28;20048;-60
2023/12/02 01:28:25;;;;;;;14.07;7.80;;;-4.10;99.90;;;;;;5062706;28;20208;-58
2023/12/02 01:30:51;;;;;;;16.42;7.38;;;-4.00;99.90;;;;;;5067835;28;20037;-59
2023/12/02 01:33:16;;;;;;;13.63;7.32;;;-4.00;99.90;;;;;;5058856;28;20106;-56
2023/12/02 01:35:42;;;;;;;13.30;7.68;;;-4.00;99.90;;;;;;5071907;28;20412;-60
2023/12/02 01:38:07;;;;;;;15.15;7.78;;;-4.00;99.90;;;;;;5058596;28;20036;-54
2023/12/02 01:40:33;;;;;;;15.30;8.10;;;-4.10;99.90;;;;;;5065184;28;20457;-60
2023/12/02 01:42:59;;;;;;;16.67;8.60;;;-4.10;99.90;;;;;;5061189;28;20570;-60
2023/12/02 01:45:24;;;;;;;14.10;7.43;;;-4.00;99.90;;;;;;5065745;28;20048;-61
2023/12/02 01:47:51;;;;;;;16.80;7.90;;;-4.00;99.90;;;;;;5061189;28;20047;-59
2023/12/02 01:50:18;;;;;;;16.42;8.93;;;-3.90;99.90;;;;;;5065027;28;20055;-61
2023/12/02 01:52:44;;;;;;;17.00;9.10;;;-3.90;99.90;;;;;;5058492;28;20123;-64
2023/12/02 01:55:09;;;;;;;18.13;8.93;;;-4.00;99.90;;;;;;5065512;28;20625;-61
2023/12/02 01:57:35;;;;;;;14.93;8.07;;;-4.10;99.90;;;;;;5057104;28;20183;-59
2023/12/02 02:00:01;;;;;;;15.10;7.55;;;-4.10;99.90;;;;;;5063418;28;20256;-61
2023/12/02 02:02:26;;;;;;;15.32;8.07;;;-4.10;99.90;;;;;;5059366;28;20040;-58
2023/12/02 02:04:52;;;;;;;17.52;7.97;;;-4.00;99.90;;;;;;5064884;28;20047;-60
2023/12/02 02:07:18;;;;;;;18.13;8.73;;;-4.00;99.90;;;;;;5059453;28;20120;-61
2023/12/02 02:09:48;;;;;;;14.73;7.95;;;-4.00;99.90;;;;;;5066272;28;20036;-59
2023/12/02 02:12:14;;;;;;;16.83;8.20;;;-3.90;99.90;;;;;;5060303;28;20037;-60
2023/12/02 02:14:40;;;;;;;18.65;8.80;;;-3.90;99.90;;;;;;5062733;28;20044;-62
2023/12/02 02:17:06;;;;;;;19.50;8.50;;;-4.00;99.90;;;;;;5061268;28;20405;-62
2023/12/02 02:19:32;;;;;;;19.55;9.80;;;-4.00;99.90;;;;;;5062679;28;20041;-59
2023/12/02 02:21:57;;;;;;;16.23;8.18;;;-4.00;99.90;;;;;;5062148;28;20044;-56
2023/12/02 02:24:23;;;;;;;18.17;8.57;;;-4.10;99.90;;;;;;5060694;28;20040;-59
2023/12/02 02:26:49;;;;;;;20.65;9.00;;;-4.10;99.90;;;;;;5065534;28;20096;-58
2023/12/02 02:29:14;;;;;;;20.13;9.95;;;-4.00;99.90;;;;;;5069640;28;20089;-59
2023/12/02 02:31:40;;;;;;;22.67;10.75;;;-4.10;99.90;;;;;;5062788;28;20084;-57
2023/12/02 02:34:05;;;;;;;19.85;9.25;;;-4.20;99.90;;;;;;5064787;28;20052;-57
2023/12/02 02:36:31;;;;;;;21.00;10.68;;;-4.10;99.90;;;;;;5065135;28;20043;-55
2023/12/02 02:38:56;;;;;;;21.35;10.25;;;-4.10;99.90;;;;;;5063027;28;20032;-54
2023/12/02 02:41:22;;;;;;;21.60;10.07;;;-4.10;99.90;;;;;;5064442;28;20040;-61
2023/12/02 02:43:47;;;;;;;27.58;12.10;;;-4.10;99.90;;;;;;5062398;28;20048;-62
2023/12/02 02:46:14;;;;;;;24.75;11.68;;;-4.10;99.90;;;;;;5065030;28;20446;-60
2023/12/02 02:48:39;;;;;;;24.40;12.10;;;-4.20;99.90;;;;;;5061099;28;20119;-50
2023/12/02 02:51:05;;;;;;;26.58;12.20;;;-4.10;99.90;;;;;;5065060;28;20138;-57
2023/12/02 02:53:31;;;;;;;24.35;12.13;;;-4.20;99.90;;;;;;5061629;28;20041;-59
2023/12/02 02:55:56;;;;;;;27.52;13.38;;;-4.20;99.90;;;;;;5063885;28;20040;-55
2023/12/02 02:58:22;;;;;;;26.15;12.13;;;-4.10;99.90;;;;;;5058792;28;20064;-54
2023/12/02 03:00:47;;;;;;;26.00;12.23;;;-4.10;99.90;;;;;;5062823;28;20032;-53
2023/12/02 03:03:13;;;;;;;25.02;12.40;;;-4.10;99.90;;;;;;5060806;28;20037;-51
2023/12/02 03:05:39;;;;;;;27.45;13.15;;;-4.10;99.90;;;;;;5063454;28;20044;-59
2023/12/02 03:08:04;;;;;;;25.27;11.82;;;-4.20;99.90;;;;;;5058418;28;20082;-58
2023/12/02 03:10:30;;;;;;;26.55;12.52;;;-4.20;99.90;;;;;;5063237;28;20033;-58
2023/12/02 03:12:56;;;;;;;26.55;13.13;;;-4.30;99.90;;;;;;5057489;28;20123;-52
2023/12/02 03:15:21;;;;;;;27.38;12.30;;;-4.20;99.90;;;;;;5064365;28;20098;-53
2023/12/02 03:17:47;;;;;;;32.80;13.98;;;-4.20;99.90;;;;;;5057407;28;20075;-61
2023/12/02 03:20:12;;;;;;;25.23;12.55;;;-4.20;99.90;;;;;;5057168;28;20591;-58
2023/12/02 03:22:38;;;;;;;24.88;11.35;;;-4.40;99.90;;;;;;5057710;28;20044;-55
2023/12/02 03:25:04;;;;;;;24.38;12.48;;;-4.30;99.90;;;;;;5059510;28;20056;-54
2023/12/02 03:27:30;;;;;;;24.55;11.95;;;-4.30;99.90;;;;;;5049587;28;20575;-57
2023/12/02 03:29:55;;;;;;;26.00;11.77;;;-4.20;99.90;;;;;;5062868;28;20056;-54
2023/12/02 03:32:21;;;;;;;26.00;12.02;;;-4.30;99.90;;;;;;5057832;28;20132;-62
2023/12/02 03:34:47;;;;;;;20.30;9.70;;;-4.20;99.90;;;;;;5062356;28;20043;-63
2023/12/02 03:37:12;;;;;;;19.60;9.60;;;-4.20;99.90;;;;;;5066770;28;20059;-63
2023/12/02 03:39:38;;;;;;;20.48;10.73;;;-4.20;99.90;;;;;;5067783;28;20508;-62
2023/12/02 03:42:04;;;;;;;21.92;10.93;;;-4.20;99.90;;;;;;5060290;28;20036;-62
2023/12/02 03:44:29;;;;;;;20.30;10.57;;;-4.20;99.90;;;;;;5062117;28;20036;-61
2023/12/02 03:46:55;;;;;;;18.63;9.52;;;-4.20;99.90;;;;;;5054312;28;20440;-63
2023/12/02 03:49:20;;;;;;;20.33;10.52;;;-4.20;99.90;;;;;;5059428;28;20032;-60
2023/12/02 03:51:46;;;;;;;20.50;9.82;;;-4.10;99.90;;;;;;5062324;28;20040;-55
2023/12/02 03:54:12;;;;;;;19.02;9.50;;;-4.20;99.90;;;;;;5063756;28;20032;-56
2023/12/02 03:56:38;;;;;;;17.90;8.45;;;-4.20;99.90;;;;;;5067770;28;20040;-55
2023/12/02 03:59:04;;;;;;;15.85;8.18;;;-4.20;99.90;;;;;;5066928;28;20037;-57
2023/12/02 04:01:29;;;;;;;15.68;8.15;;;-4.30;99.90;;;;;;5067323;28;20131;-58
2023/12/02 04:03:55;;;;;;;11.52;6.60;;;-4.30;99.90;;;;;;5068085;28;20061;-59
2023/12/02 04:06:20;;;;;;;17.50;8.20;;;-4.30;99.90;;;;;;5069194;28;20070;-59
2023/12/02 04:08:46;;;;;;;14.52;7.47;;;-4.40;99.90;;;;;;5070652;28;20700;-58
2023/12/02 04:11:11;;;;;;;13.80;7.13;;;-4.30;99.90;;;;;;5079796;28;20033;-52
2023/12/02 04:13:37;;;;;;;14.60;7.22;;;-4.30;99.90;;;;;;5072091;28;20070;-52
2023/12/02 04:16:03;;;;;;;14.50;7.88;;;-4.30;99.90;;;;;;5067199;28;20131;-59
2023/12/02 04:18:28;;;;;;;12.93;6.57;;;-4.20;99.90;;;;;;5070907;28;20119;-57
2023/12/02 04:20:54;;;;;;;15.82;7.10;;;-4.40;99.90;;;;;;5068299;28;20496;-60
2023/12/02 04:23:20;;;;;;;16.05;8.45;;;-4.40;99.90;;;;;;5071405;28;20041;-59
2023/12/02 04:25:45;;;;;;;14.85;8.35;;;-4.50;99.90;;;;;;5073148;28;20647;-61
2023/12/02 04:28:11;;;;;;;15.43;7.93;;;-4.60;99.90;;;;;;5069073;28;20028;-57
2023/12/02 04:30:39;;;;;;;15.35;7.90;;;-4.60;99.90;;;;;;5057569;28;20033;-59
2023/12/02 04:33:05;;;;;;;16.27;7.85;;;-4.50;99.90;;;;;;5057350;28;20052;-58
2023/12/02 04:35:31;;;;;;;14.70;7.50;;;-4.50;99.90;;;;;;5063797;28;20036;-62
2023/12/02 04:37:57;;;;;;;14.98;6.47;;;-4.40;99.90;;;;;;5071983;28;20101;-61
2023/12/02 04:40:22;;;;;;;16.80;7.85;;;-4.30;99.90;;;;;;5072024;28;20040;-62
2023/12/02 04:42:48;;;;;;;16.48;6.97;;;-4.30;99.90;;;;;;5060716;28;20131;-59
2023/12/02 04:45:14;;;;;;;13.63;6.68;;;-4.30;99.90;;;;;;5062737;28;20037;-59
2023/12/02 04:47:39;;;;;;;12.27;6.55;;;-4.30;99.90;;;;;;5051485;28;20425;-57
2023/12/02 04:50:06;;;;;;;11.40;6.40;;;-4.30;99.90;;;;;;5065938;28;20133;-60
2023/12/02 04:52:32;;;;;;;14.20;6.97;;;-4.30;99.90;;;;;;5055831;28;20040;-59
2023/12/02 04:54:58;;;;;;;13.90;6.53;;;-4.30;99.90;;;;;;5064595;28;20533;-59
2023/12/02 04:57:24;;;;;;;11.15;6.20;;;-4.40;99.90;;;;;;5062704;28;20048;-58
2023/12/02 04:59:49;;;;;;;10.45;6.18;;;-4.40;99.90;;;;;;5068607;28;20032;-58
2023/12/02 05:02:18;;;;;;;12.43;6.38;;;-4.40;99.90;;;;;;5064645;28;20048;-57
2023/12/02 05:04:44;;;;;;;13.57;6.25;;;-4.20;99.90;;;;;;5065320;28;20028;-57
2023/12/02 05:07:09;;;;;;;11.90;6.18;;;-4.20;99.90;;;;;;5062674;28;20094;-60
2023/12/02 05:09:36;;;;;;;14.30;6.32;;;-4.30;99.90;;;;;;5065185;28;20543;-58
2023/12/02 05:12:02;;;;;;;12.38;6.38;;;-4.40;99.90;;;;;;5063557;28;20041;-60
2023/12/02 05:14:28;;;;;;;13.38;6.95;;;-4.50;99.90;;;;;;5066033;28;20113;-62
2023/12/02 05:16:53;;;;;;;13.80;7.07;;;-4.60;99.90;;;;;;5063843;28;20575;-60
2023/12/02 05:19:19;;;;;;;12.65;5.93;;;-4.50;99.90;;;;;;5070933;28;20028;-60
2023/12/02 05:21:44;;;;;;;11.20;6.30;;;-4.40;99.90;;;;;;5063628;28;20044;-59
2023/12/02 05:24:10;;;;;;;14.30;6.72;;;-4.30;99.90;;;;;;5064801;28;21444;-60
2023/12/02 05:26:35;;;;;;;11.15;6.10;;;-4.30;99.90;;;;;;5063590;28;20083;-59
2023/12/02 05:29:05;;;;;;;14.02;7.32;;;-4.40;99.90;;;;;;5064033;28;20127;-54
2023/12/02 05:31:32;;;;;;;14.73;7.57;;;-4.30;99.90;;;;;;5064477;28;20037;-61
2023/12/02 05:33:58;;;;;;;13.02;6.97;;;-4.30;99.90;;;;;;5063575;28;20052;-60
2023/12/02 05:36:23;;;;;;;15.93;7.57;;;-4.20;99.90;;;;;;5070973;28;20044;-58
2023/12/02 05:38:49;;;;;;;11.73;6.50;;;-4.10;99.90;;;;;;5063290;28;20158;-61
2023/12/02 05:41:14;;;;;;;14.20;6.95;;;-4.20;99.90;;;;;;5065512;28;20086;-60
2023/12/02 05:43:40;;;;;;;13.60;6.55;;;-4.10;99.90;;;;;;5063906;28;20028;-62
2023/12/02 05:46:06;;;;;;;14.63;6.70;;;-4.10;99.90;;;;;;5062004;28;20105;-61
2023/12/02 05:48:31;;;;;;;12.20;6.15;;;-4.10;99.90;;;;;;5062939;28;20492;-61
2023/12/02 05:51:00;;;;;;;11.25;6.00;;;-4.20;99.90;;;;;;5060090;28;20048;-59
2023/12/02 05:53:26;;;;;;;15.00;6.70;;;-4.20;99.90;;;;;;5063330;28;20059;-63
2023/12/02 05:55:51;;;;;;;12.93;6.60;;;-4.30;99.90;;;;;;5059443;28;20044;-60
2023/12/02 05:58:17;;;;;;;11.77;6.15;;;-4.40;99.90;;;;;;5062195;28;20397;-59
2023/12/02 06:00:44;;;;;;;12.57;5.88;;;-4.30;99.90;;;;;;5062454;28;20439;-56
2023/12/02 06:03:09;;;;;;;11.45;5.82;;;-4.30;99.90;;;;;;5062522;28;20079;-57
2023/12/02 06:05:35;;;;;;;13.95;6.57;;;-4.20;99.90;;;;;;5064462;28;20134;-57
2023/12/02 06:08:00;;;;;;;10.85;5.78;;;-4.20;99.90;;;;;;5061802;28;20055;-58
2023/12/02 06:10:26;;;;;;;11.15;6.40;;;-4.20;99.90;;;;;;5060484;28;20059;-55
2023/12/02 06:12:51;;;;;;;12.75;6.10;;;-4.20;99.90;;;;;;5062580;28;20427;-60
2023/12/02 06:15:17;;;;;;;11.63;6.80;;;-4.10;99.90;;;;;;5064142;28;20131;-60
2023/12/02 06:17:42;;;;;;;11.30;6.00;;;-4.20;99.90;;;;;;5061939;28;20037;-61
2023/12/02 06:20:10;;;;;;;12.05;5.90;;;-4.20;99.90;;;;;;5064350;28;20074;-58
2023/12/02 06:22:36;;;;;;;10.55;5.90;;;-4.10;99.90;;;;;;5062633;28;20053;-58
2023/12/02 06:25:02;;;;;;;12.07;6.55;;;-4.10;99.90;;;;;;5064356;28;20040;-56
2023/12/02 06:27:28;;;;;;;12.27;6.88;;;-4.20;99.90;;;;;;5061472;28;20102;-58
2023/12/02 06:29:53;;;;;;;15.20;7.43;;;-4.20;99.90;;;;;;5060633;28;20044;-62
2023/12/02 06:32:19;;;;;;;17.92;9.38;;;-4.30;99.90;;;;;;5061620;28;20082;-62
2023/12/02 06:34:44;;;;;;;16.90;8.43;;;-4.20;99.90;;;;;;5060428;28;20468;-61
2023/12/02 06:37:10;;;;;;;14.20;7.15;;;-4.20;99.90;;;;;;5059498;28;20037;-60
2023/12/02 06:39:35;;;;;;;14.48;7.57;;;-4.20;99.90;;;;;;5058239;28;20501;-60
2023/12/02 06:42:01;;;;;;;12.25;6.75;;;-4.10;99.90;;;;;;5061696;28;20225;-61
2023/12/02 06:44:26;;;;;;;14.35;6.70;;;-4.10;99.90;;;;;;5058738;28;20040;-62
2023/12/02 06:46:52;;;;;;;11.25;5.93;;;-4.10;99.90;;;;;;5061485;28;20090;-60
2023/12/02 06:49:18;;;;;;;10.27;5.68;;;-4.10;99.90;;;;;;5064055;28;20152;-58
2023/12/02 06:51:44;;;;;;;12.18;5.80;;;-4.10;99.90;;;;;;5059644;28;20065;-60
2023/12/02 06:54:09;;;;;;;10.57;5.57;;;-4.10;99.90;;;;;;5068222;28;20029;-60
2023/12/02 06:56:35;;;;;;;9.73;5.78;;;-4.10;99.90;;;;;;5068889;28;20040;-60
2023/12/02 06:59:00;;;;;;;13.07;6.35;;;-4.10;99.90;;;;;;5069410;28;20036;-59
2023/12/02 07:01:30;;;;;;;11.45;6.30;;;-4.10;99.90;;;;;;5071979;28;20044;-58
2023/12/02 07:03:58;;;;;;;11.55;6.45;;;-4.10;99.90;;;;;;5058811;28;20451;-60
2023/12/02 07:06:25;;;;;;;12.15;6.40;;;-4.10;99.90;;;;;;5064518;28;20520;-62
2023/12/02 07:08:51;;;;;;;12.05;6.22;;;-4.00;99.90;;;;;;5062414;28;20055;-61
2023/12/02 07:11:18;;;;;;;12.60;6.13;;;-4.10;99.90;;;;;;5063427;28;20051;-61
2023/12/02 07:13:43;;;;;;;11.85;6.18;;;-4.10;99.90;;;;;;5059801;28;20090;-62
2023/12/02 07:16:10;;;;;;;15.10;7.45;;;-4.10;99.90;;;;;;5063855;28;20111;-60
2023/12/02 07:18:36;;;;;;;14.57;7.05;;;-4.10;99.90;;;;;;5059851;28;20551;-59
2023/12/02 07:21:01;;;;;;;12.70;6.47;;;-4.00;99.90;;;;;;5060268;28;20036;-58
2023/12/02 07:23:30;;;;;;;11.80;6.78;;;-3.90;99.90;;;;;;5057741;28;20048;-60
2023/12/02 07:25:56;;;;;;;14.90;6.82;;;-3.90;99.90;;;;;;5063556;28;20055;-52
2023/12/02 07:28:22;;;;;;;10.82;5.53;;;-3.90;99.90;;;;;;5061534;28;20044;-55
2023/12/02 07:30:49;;;;;;;12.73;5.95;;;-3.90;99.90;;;;;;5067229;28;20070;-54
2023/12/02 07:33:14;;;;;;;11.93;5.85;;;-3.90;99.90;;;;;;5069574;28;20032;-56
2023/12/02 07:35:40;;;;;;;14.93;5.95;;;-3.80;99.90;;;;;;5067979;28;20040;-59
2023/12/02 07:38:06;;;;;;;9.05;4.82;;;-3.70;99.90;;;;;;5069122;28;20124;-60
2023/12/02 07:40:31;;;;;;;9.68;5.25;;;-3.70;99.90;;;;;;5070831;28;20056;-62
2023/12/02 07:42:57;;;;;;;9.48;5.35;;;-3.70;99.90;;;;;;5069787;28;20116;-61
2023/12/02 07:45:23;;;;;;;8.98;4.80;;;-3.70;99.90;;;;;;5063287;28;20052;-61
2023/12/02 07:47:48;;;;;;;11.75;6.13;;;-3.60;99.90;;;;;;5065593;28;20136;-61
2023/12/02 07:50:14;;;;;;;10.85;6.13;;;-3.60;99.90;;;;;;5063954;28;20455;-60
2023/12/02 07:52:39;;;;;;;11.60;6.13;;;-3.60;99.90;;;;;;5065578;28;20433;-60
2023/12/02 07:55:05;;;;;;;10.75;7.03;;;-3.60;99.90;;;;;;5067640;28;20045;-58
2023/12/02 07:57:31;;;;;;;11.32;6.00;;;-3.60;99.90;;;;;;5064025;28;20064;-59
2023/12/02 07:59:56;;;;;;;10.90;5.65;;;-3.60;99.90;;;;;;5067524;28;20527;-61
2023/12/02 08:02:22;;;;;;;12.88;6.47;;;-3.60;99.90;;;;;;5059516;28;20535;-54
2023/12/02 08:04:48;;;;;;;15.65;8.10;;;-3.60;99.90;;;;;;5067593;28;20111;-54
2023/12/02 08:07:13;;;;;;;14.82;7.25;;;-3.60;99.90;;;;;;5063070;28;20069;-61
2023/12/02 08:09:39;;;;;;;16.45;7.85;;;-3.60;99.90;;;;;;5066413;28;20124;-59
2023/12/02 08:12:05;;;;;;;16.35;7.82;;;-3.60;99.90;;;;;;5064208;28;20072;-61
2023/12/02 08:14:31;;;;;;;17.85;8.45;;;-3.60;99.90;;;;;;5065375;28;20109;-55
2023/12/02 08:16:56;;;;;;;16.77;7.70;;;-3.80;99.90;;;;;;5064744;28;20094;-56
2023/12/02 08:19:22;;;;;;;16.15;7.32;;;-3.80;99.90;;;;;;5063469;28;20048;-60
2023/12/02 08:21:47;;;;;;;14.48;7.43;;;-3.70;99.90;;;;;;5070195;28;20051;-61
2023/12/02 08:24:13;;;;;;;11.10;5.72;;;-3.70;99.90;;;;;;5067011;28;20408;-62
2023/12/02 08:26:39;;;;;;;13.23;6.65;;;-3.70;99.90;;;;;;5066786;28;20497;-61
2023/12/02 08:29:04;;;;;;;15.27;6.45;;;-3.60;99.90;;;;;;5063476;28;20499;-62
2023/12/02 08:31:32;;;;;;;13.60;6.45;;;-3.60;99.90;;;;;;5065658;28;20118;-53
2023/12/02 08:33:57;;;;;;;11.10;5.80;;;-3.70;99.90;;;;;;5063219;28;20106;-58
2023/12/02 08:36:23;;;;;;;10.35;5.60;;;-3.60;99.90;;;;;;5069480;28;20056;-53
2023/12/02 08:38:48;;;;;;;10.55;5.82;;;-3.60;99.90;;;;;;5061638;28;20041;-56
2023/12/02 08:41:14;;;;;;;11.98;5.40;;;-3.50;99.90;;;;;;5068619;28;20105;-59
2023/12/02 08:43:41;;;;;;;10.52;5.28;;;-3.40;99.90;;;;;;5057376;28;20533;-58
2023/12/02 08:46:13;;;;;;;11.75;6.07;;;-3.30;99.90;;;;;;5059744;28;20771;-57
2023/12/02 08:48:39;;;;;;;14.40;3.88;;;-3.20;99.90;;;;;;5065314;28;20589;-60
2023/12/02 08:51:05;;;;;;;8.25;4.35;;;-3.20;99.90;;;;;;5069462;28;20039;-62
2023/12/02 08:53:30;;;;;;;11.07;4.50;;;-3.20;99.90;;;;;;5061344;28;20074;-60
2023/12/02 08:55:56;;;;;;;12.90;6.18;;;-3.20;99.90;;;;;;5066588;28;20685;-62
2023/12/02 08:58:21;;;;;;;10.70;5.10;;;-3.10;99.90;;;;;;5060860;28;20040;-61
2023/12/02 09:00:47;;;;;;;5.35;3.10;;;-3.10;99.90;;;;;;5065906;28;20044;-62
2023/12/02 09:03:13;;;;;;;6.53;3.50;;;-3.10;99.90;;;;;;5063369;28;20028;-60
2023/12/02 09:05:38;;;;;;;5.38;3.33;;;-3.20;99.90;;;;;;5059916;28;20464;-62
2023/12/02 09:08:04;;;;;;;7.75;3.50;;;-3.10;99.90;;;;;;5060885;28;20461;-64
2023/12/02 09:10:30;;;;;;;5.88;2.92;;;-3.10;99.90;;;;;;5065247;28;20047;-62
2023/12/02 09:12:55;;;;;;;7.35;3.85;;;-3.20;99.90;;;;;;5061634;28;20711;-57
2023/12/02 09:15:21;;;;;;;6.20;3.67;;;-3.20;99.90;;;;;;5059130;28;20040;-59
2023/12/02 09:18:01;;;;;;;7.97;3.97;;;-3.20;99.90;;;;;;5068708;28;20567;-60
2023/12/02 09:20:44;;;;;;;6.32;3.63;;;-3.10;99.90;;;;;;5071912;28;20032;-62
2023/12/02 09:23:10;;;;;;;7.55;4.40;;;-3.00;99.90;;;;;;5062635;28;20123;-60
2023/12/02 09:25:38;;;;;;;9.73;5.03;;;-3.20;99.90;;;;;;5068456;28;20040;-59
2023/12/02 09:28:06;;;;;;;9.65;4.50;;;-3.10;99.90;;;;;;5065100;28;20032;-59
2023/12/02 09:30:33;;;;;;;10.18;5.25;;;-3.00;99.90;;;;;;5062346;28;20501;-63
2023/12/02 09:32:59;;;;;;;13.05;7.05;;;-3.00;99.90;;;;;;5066655;28;20040;-57
2023/12/02 09:35:26;;;;;;;10.52;5.70;;;-3.00;99.90;;;;;;5067333;28;20563;-60
2023/12/02 09:37:55;;;;;;;9.98;5.45;;;-2.90;99.90;;;;;;5058925;28;20072;-60
2023/12/02 09:40:20;;;;;;;12.48;6.00;;;-2.80;99.90;;;;;;5067493;28;20093;-55
2023/12/02 09:42:54;;;;;;;10.57;5.43;;;-2.80;99.90;;;;;;5072392;28;20492;-59
2023/12/02 09:45:32;;;;;;;13.45;6.22;;;-2.90;99.90;;;;;;5065324;28;20044;-60
2023/12/02 09:48:05;;;;;;;10.32;5.75;;;-2.80;99.90;;;;;;5059294;28;20049;-56
2023/12/02 09:50:43;;;;;;;9.50;5.20;;;-2.60;99.90;;;;;;5062298;28;20675;-59
2023/12/02 09:53:23;;;;;;;11.13;5.47;;;-2.50;99.90;;;;;;5054055;28;20036;-57
2023/12/02 09:55:58;;;;;;;9.27;5.00;;;-2.40;99.90;;;;;;5064385;28;20051;-53
2023/12/02 09:58:29;;;;;;;9.52;4.85;;;-2.30;99.90;;;;;;5057489;28;20036;-58
2023/12/02 10:01:07;;;;;;;9.18;4.60;;;-2.30;99.90;;;;;;5065822;28;20068;-57
2023/12/02 10:03:45;;;;;;;8.00;5.00;;;-2.20;99.90;;;;;;5059253;28;20491;-55
2023/12/02 10:06:28;;;;;;;10.82;5.57;;;-2.20;99.90;;;;;;5070823;28;20515;-55
2023/12/02 10:09:21;;;;;;;10.57;5.93;;;-2.40;99.90;;;;;;5060136;28;20032;-59
2023/12/02 10:11:53;;;;;;;9.98;5.65;;;-2.10;99.90;;;;;;5067472;28;20044;-58
2023/12/02 10:14:22;;;;;;;10.93;5.10;;;-2.00;99.90;;;;;;5064300;28;20044;-57
2023/12/02 10:16:51;;;;;;;11.18;5.55;;;-1.90;99.90;;;;;;5065327;28;20543;-60
2023/12/02 10:19:40;;;;;;;11.80;5.55;;;-1.90;99.90;;;;;;5068331;28;20048;-58
2023/12/02 10:22:09;;;;;;;12.38;6.38;;;-1.90;99.90;;;;;;5062124;28;20047;-60
2023/12/02 10:24:57;;;;;;;12.27;6.53;;;-1.90;99.90;;;;;;5073499;28;20539;-60
2023/12/02 10:27:27;;;;;;;11.27;6.05;;;-2.00;99.90;;;;;;5053962;28;20127;-57
2023/12/02 10:30:09;;;;;;;12.32;6.55;;;-2.10;99.90;;;;;;5061207;28;20043;-61
2023/12/02 10:33:09;;;;;;;13.15;6.75;;;-2.10;99.90;;;;;;5057694;28;20032;-57
2023/12/02 10:35:36;;;;;;;9.15;5.18;;;-2.10;99.90;;;;;;5061085;28;20707;-55
2023/12/02 10:38:20;;;;;;;11.13;5.85;;;-2.40;99.90;;;;;;5059047;28;20044;-61
2023/12/02 10:40:51;;;;;;;10.20;5.50;;;-2.20;99.90;;;;;;5057748;28;20131;-59
2023/12/02 10:43:31;;;;;;;10.25;5.90;;;-2.10;99.90;;;;;;5057657;28;20044;-61
2023/12/02 10:45:58;;;;;;;10.35;6.00;;;-2.00;99.90;;;;;;5061742;28;20524;-57
2023/12/02 10:48:25;;;;;;;12.13;6.28;;;-2.00;99.90;;;;;;5058289;28;20482;-58
2023/12/02 10:50:52;;;;;;;12.55;6.75;;;-2.00;99.90;;;;;;5065120;28;20044;-56
2023/12/02 10:53:20;;;;;;;13.95;6.72;;;-2.00;99.90;;;;;;5057254;28;20488;-56
2023/12/02 10:55:53;;;;;;;13.00;6.65;;;-1.90;99.90;;;;;;5065848;28;22897;-58
2023/12/02 10:58:20;;;;;;;13.32;7.15;;;-1.80;99.90;;;;;;5058541;28;20033;-55
2023/12/02 11:00:49;;;;;;;15.00;7.68;;;-1.70;99.90;;;;;;5058217;28;20154;-54
2023/12/02 11:03:32;;;;;;;15.05;7.90;;;-1.90;99.90;;;;;;5064151;28;20093;-59
2023/12/02 11:06:07;;;;;;;14.48;7.95;;;-2.00;99.90;;;;;;5063975;28;20044;-59
2023/12/02 11:08:47;;;;;;;11.20;6.67;;;-1.80;99.90;;;;;;5057886;28;20045;-57
2023/12/02 11:11:37;;;;;;;14.48;7.68;;;-1.60;99.90;;;;;;5060670;28;20094;-56
2023/12/02 11:14:04;;;;;;;13.43;7.25;;;-1.50;99.90;;;;;;5057020;28;20087;-60
2023/12/02 11:16:41;;;;;;;14.90;7.25;;;-1.50;99.90;;;;;;5062653;28;20136;-59
2023/12/02 11:19:28;;;;;;;17.95;8.43;;;-1.50;99.90;;;;;;5064337;28;20032;-56
2023/12/02 11:22:18;;;;;;;15.55;8.32;;;-1.70;99.90;;;;;;5062486;28;20044;-58
2023/12/02 11:25:00;;;;;;;16.33;8.90;;;-1.70;99.90;;;;;;5062424;28;20044;-57
2023/12/02 11:27:41;;;;;;;18.20;9.15;;;-1.90;99.90;;;;;;5057618;28;20103;-59
2023/12/02 11:30:38;;;;;;;16.80;8.32;;;-2.00;99.90;;;;;;5061486;28;20103;-58
2023/12/02 11:33:15;;;;;;;15.40;8.63;;;-2.00;99.90;;;;;;5055545;28;20048;-59
2023/12/02 11:35:59;;;;;;;15.90;8.90;;;-2.00;99.90;;;;;;5060947;28;20036;-61
2023/12/02 11:38:32;;;;;;;17.90;9.45;;;-2.00;99.90;;;;;;5057818;28;20131;-56
2023/12/02 11:41:10;;;;;;;21.20;10.25;;;-1.90;99.90;;;;;;5066544;28;20047;-54
2023/12/02 11:43:56;;;;;;;19.65;9.90;;;-1.90;99.90;;;;;;5052266;28;20514;-59
2023/12/02 11:46:29;;;;;;;15.98;8.40;;;-2.00;99.90;;;;;;5067659;28;20040;-57
2023/12/02 11:49:11;;;;;;;22.73;11.68;;;-2.10;99.90;;;;;;5061842;28;20060;-60
2023/12/02 11:51:51;;;;;;;21.38;12.30;;;-2.10;99.90;;;;;;5069722;28;20117;-61
2023/12/02 11:54:22;;;;;;;23.95;11.88;;;-1.90;99.90;;;;;;5058927;28;20758;-57
2023/12/02 11:57:14;;;;;;;21.17;10.77;;;-2.00;99.90;;;;;;5064039;28;20123;-59
2023/12/02 12:00:07;;;;;;;23.08;11.07;;;-1.90;99.90;;;;;;5022461;28;20098;-58
2023/12/02 12:02:55;;;;;;;23.33;12.48;;;-2.00;99.90;;;;;;5062016;28;20049;-55
2023/12/02 12:06:00;;;;;;;23.80;11.70;;;-2.00;99.90;;;;;;5064339;28;20048;-52
2023/12/02 12:08:46;;;;;;;25.05;13.10;;;-2.00;99.90;;;;;;5042407;28;20049;-58
2023/12/02 12:11:16;;;;;;;20.73;10.43;;;-2.20;99.90;;;;;;5063674;28;20537;-56
2023/12/02 12:13:45;;;;;;;23.92;12.27;;;-2.10;99.90;;;;;;5055706;28;20044;-54
2023/12/02 12:16:11;;;;;;;29.13;13.65;;;-2.00;99.90;;;;;;5068032;28;20075;-60
2023/12/02 12:18:37;;;;;;;25.10;12.77;;;-2.00;99.90;;;;;;5058590;28;20486;-61
2023/12/02 12:21:03;;;;;;;26.38;13.25;;;-2.00;99.90;;;;;;5066961;28;20119;-56
2023/12/02 12:23:31;;;;;;;26.92;12.82;;;-1.80;99.90;;;;;;5061604;28;20090;-57
2023/12/02 12:25:58;;;;;;;25.08;12.32;;;-1.80;99.90;;;;;;5066675;28;20092;-59
2023/12/02 12:28:25;;;;;;;27.60;14.30;;;-2.00;99.90;;;;;;5063140;28;20036;-60
2023/12/02 12:30:50;;;;;;;26.23;14.15;;;-2.00;99.90;;;;;;5064128;28;20389;-55
2023/12/02 12:33:20;;;;;;;26.15;13.27;;;-2.10;99.90;;;;;;5056421;28;20090;-63
2023/12/02 12:35:47;;;;;;;23.67;11.90;;;-2.10;99.90;;;;;;5057314;28;20037;-55
2023/12/02 12:38:14;;;;;;;25.05;12.75;;;-2.10;99.90;;;;;;5059610;28;20685;-57
2023/12/02 12:40:41;;;;;;;23.58;12.40;;;-2.10;99.90;;;;;;5056340;28;20052;-56